Thunder radar more information blitzortung!


Radar de pluja more information rain snow radar


Visita la nostra xarxa de llocs de meteo:

Template documentation
and downloads

And another site



Extreme low temperature From: 23-02-2018 00:00 Until: 09:59 warning for: Extreme low temperature Level: Yellow info button

Pagina Historial Weather Underground text

Diari Resum Desembre 9, 2017 Unitats:  Imperial    Mètric   Tant
« Previous Dia
SegĂźent Dia »
Diari Setmana Mensual Anual Personalitzada
  Maxima: Minima: Media:
Temperatura: TemperatureC °F 1.8 °F 7.2 °F
Punt de rosada: DewpointC °F -2.7 °F 0.2 °F
Humitat: Humidity % 53 % 61 %
Wind Speed: WindSpeedKMH mph 0.0 mph 3.6 mph
RĂ fegues de vent: WindSpeedGustKMH mph - -
Vent:- - SE
Pression baro: PressurehPa in 1018.8 in -
Precipitacions: 0.0 in    
Historical Graphs
 
 
Dades de taula per Desembre 9, 2017
Temps Temperatura Punt de rosada Pression baro Vent Wind Speed RĂ fegues de vent Humitat Rainfall Rate (Hourly)
TemperatureC °F DewpointC °F PressurehPa in Calm     Humidity % HourlyPrecipMM in
00:03 4.2 °F -1.2 °F 1019.9 in NW 2.6 mph   68 % 0.0 in
00:10 2.6 °F -1.9 °F 1019.9 in Calm     72 % 0.0 in
00:20 2.4 °F -2.3 °F 1019.9 in West 1.6 mph 3.2 mph 71 % 0.0 in
00:30 2.5 °F -2.1 °F 1019.9 in Calm   3.2 mph 72 % 0.0 in
00:40 2.5 °F -2.1 °F 1019.9 in Calm   1.6 mph 72 % 0.0 in
00:50 2.5 °F -2.1 °F 1019.9 in West 1.6 mph 3.2 mph 72 % 0.0 in
01:00 2.5 °F -2.1 °F 1019.9 in NW 1.6 mph 3.2 mph 72 % 0.0 in
01:10 2.3 °F -2.2 °F 1019.9 in North 1.6 mph 3.2 mph 72 % 0.0 in
01:20 2.2 °F -2.3 °F 1019.9 in Calm   1.6 mph 72 % 0.0 in
01:30 2.2 °F -2.3 °F 1019.9 in North 1.6 mph 1.6 mph 72 % 0.0 in
01:40 2.0 °F -2.5 °F 1019.9 in NW 1.6 mph 3.2 mph 72 % 0.0 in
01:50 2.1 °F -2.4 °F 1020.9 in NW 3.2 mph 3.2 mph 72 % 0.0 in
02:00 2.0 °F -2.5 °F 1020.9 in Calm   3.2 mph 72 % 0.0 in
02:10 1.8 °F -2.7 °F 1020.9 in NW 1.6 mph 1.6 mph 72 % 0.0 in
02:20 2.0 °F -2.5 °F 1021.9 in NW 1.6 mph 3.2 mph 72 % 0.0 in
02:30 2.0 °F -2.5 °F 1021.9 in NNE 1.6 mph 4.8 mph 72 % 0.0 in
02:50 2.3 °F -2.2 °F 1021.9 in NNW 1.6 mph 6.4 mph 72 % 0.0 in
03:10 2.6 °F -1.9 °F 1021.9 in Calm   1.6 mph 72 % 0.0 in
03:20 3.4 °F -1.2 °F 1021.9 in NNE 1.6 mph 4.8 mph 72 % 0.0 in
09:23 3.7 °F -0.9 °F 1021.9 in NNE 2.3 mph 2.3 mph 72 % 0.0 in
09:25 3.9 °F -0.7 °F 1021.9 in NNE 5.6 mph 5.6 mph 72 % 0.0 in
09:40 4.5 °F -0.5 °F 1021.9 in WSW 7.4 mph 7.4 mph 70 % 0.0 in
09:50 5.3 °F 0.3 °F 1020.9 in South 3.7 mph 3.7 mph 70 % 0.0 in
09:55 5.7 °F 0.4 °F 1020.9 in ENE 2.6 mph 2.6 mph 69 % 0.0 in
10:05 5.8 °F 0.3 °F 1021.9 in WNW 3.7 mph 3.7 mph 68 % 0.0 in
10:15 6.0 °F 0.3 °F 1021.9 in ENE 3.2 mph 3.2 mph 67 % 0.0 in
10:20 6.1 °F 0.4 °F 1021.9 in NNW 7.4 mph 7.4 mph 67 % 0.0 in
10:25 6.3 °F 0.6 °F 1021.9 in ENE 5.6 mph 5.6 mph 67 % 0.0 in
10:30 6.5 °F 0.6 °F 1022.9 in NE 5.6 mph 5.6 mph 66 % 0.0 in
10:40 6.9 °F 0.8 °F 1022.9 in East 3.7 mph 3.7 mph 65 % 0.0 in
10:45 6.4 °F 0.3 °F 1022.9 in NNE 9.3 mph 9.3 mph 65 % 0.0 in
10:55 6.5 °F 0.2 °F 1022.9 in NNE 5.6 mph 5.6 mph 64 % 0.0 in
11:00 6.7 °F 0.4 °F 1022.9 in NNE 4.7 mph 4.7 mph 64 % 0.0 in
11:05 6.7 °F 0.4 °F 1022.9 in WSW 5.6 mph 5.6 mph 64 % 0.0 in
11:10 6.8 °F 0.2 °F 1022.9 in NNE 3.7 mph 3.7 mph 63 % 0.0 in
11:20 7.0 °F 0.4 °F 1022.9 in ENE 5.8 mph 5.8 mph 63 % 0.0 in
11:26 7.0 °F 0.4 °F 1022.9 in NNE 5.6 mph 5.6 mph 63 % 0.0 in
11:31 7.0 °F 0.2 °F 1022.9 in ENE 7.4 mph 7.4 mph 62 % 0.0 in
11:36 7.2 °F 0.4 °F 1022.9 in NNE 7.4 mph 7.4 mph 62 % 0.0 in
11:41 7.5 °F 0.7 °F 1022.9 in North 5.6 mph 5.6 mph 62 % 0.0 in
11:46 7.6 °F 0.8 °F 1022.9 in NE 5.3 mph 5.3 mph 62 % 0.0 in
11:51 7.9 °F 1.1 °F 1022.9 in ESE 3.7 mph 3.7 mph 62 % 0.0 in
11:56 8.0 °F 0.9 °F 1022.9 in NNE 7.4 mph 7.4 mph 61 % 0.0 in
12:01 7.8 °F 0.7 °F 1021.9 in ENE 9.3 mph 9.3 mph 61 % 0.0 in
12:06 8.1 °F 1.0 °F 1021.9 in NE 6.9 mph 6.9 mph 61 % 0.0 in
12:11 8.1 °F 1.0 °F 1021.9 in NNE 9.3 mph 9.3 mph 61 % 0.0 in
12:16 8.3 °F 1.0 °F 1021.9 in WNW 5.6 mph 5.6 mph 60 % 0.0 in
12:21 8.5 °F 1.2 °F 1021.9 in ENE 5.8 mph 5.8 mph 60 % 0.0 in
12:26 8.6 °F 1.3 °F 1021.9 in ENE 5.3 mph 5.3 mph 60 % 0.0 in
12:31 8.6 °F 1.1 °F 1021.9 in NNE 5.6 mph 5.6 mph 59 % 0.0 in
12:36 8.8 °F 1.2 °F 1021.9 in NE 7.4 mph 7.4 mph 59 % 0.0 in
12:41 8.9 °F 1.3 °F 1021.9 in NNE 6.4 mph 6.4 mph 59 % 0.0 in
12:46 9.0 °F 1.2 °F 1021.9 in North 6.9 mph 6.9 mph 58 % 0.0 in
12:51 9.1 °F 1.3 °F 1021.9 in NNE 5.6 mph 5.6 mph 58 % 0.0 in
12:56 9.3 °F 1.4 °F 1021.9 in NNE 3.7 mph 3.7 mph 58 % 0.0 in
13:01 9.6 °F 1.7 °F 1021.9 in NNE 3.9 mph 3.9 mph 58 % 0.0 in
13:06 9.4 °F 1.3 °F 1021.9 in ENE 7.4 mph 7.4 mph 57 % 0.0 in
13:11 9.3 °F 0.9 °F 1021.9 in ENE 7.4 mph 7.4 mph 56 % 0.0 in
13:16 9.5 °F 1.4 °F 1021.9 in ENE 3.7 mph 3.7 mph 57 % 0.0 in
13:21 9.8 °F 1.7 °F 1021.9 in ENE 5.6 mph 5.6 mph 57 % 0.0 in
13:26 9.9 °F 1.5 °F 1021.9 in ENE 3.7 mph 3.7 mph 56 % 0.0 in
13:31 10.1 °F 1.7 °F 1021.9 in ENE 1.9 mph   56 % 0.0 in
13:36 10.0 °F 1.4 °F 1021.9 in ESE 7.4 mph 7.4 mph 55 % 0.0 in
13:41 9.8 °F 1.2 °F 1021.9 in ESE 5.6 mph 5.6 mph 55 % 0.0 in
13:51 9.8 °F 1.2 °F 1021.9 in ESE 5.3 mph 5.3 mph 55 % 0.0 in
13:56 9.8 °F 1.2 °F 1021.9 in ENE 3.7 mph 3.7 mph 55 % 0.0 in
14:00 7.1 °F -0.6 °F 1018.8 in Calm     58 % 0.0 in
14:01 10.0 °F 1.4 °F 1021.9 in NE 3.9 mph 4.2 mph 55 % 0.0 in
14:06 9.9 °F 1.3 °F 1021.9 in SE 7.4 mph 7.4 mph 55 % 0.0 in
14:10 7.0 °F -0.7 °F 1019.9 in Calm     58 % 0.0 in
14:14 10.0 °F 1.1 °F 1020.9 in ESE 7.4 mph 7.4 mph 54 % 0.0 in
14:29 10.2 °F 1.3 °F 1020.9 in East 7.4 mph 7.4 mph 54 % 0.0 in
14:30 6.5 °F -0.9 °F 1018.8 in NNE 1.6 mph 3.2 mph 59 % 0.0 in
14:44 10.8 °F 1.6 °F 1020.9 in SSE 5.6 mph 5.6 mph 53 % 0.0 in
14:49 11.0 °F 1.8 °F 1020.9 in SSE 7.4 mph 7.4 mph 53 % 0.0 in
14:50 6.1 °F -1.3 °F 1019.9 in NNW 1.6 mph 3.2 mph 59 % 0.0 in
14:59 11.1 °F 1.9 °F 1019.9 in SE 7.4 mph 7.4 mph 53 % 0.0 in
15:00 5.8 °F -1.4 °F 1019.9 in Calm   3.2 mph 60 % 0.0 in
15:10 5.6 °F -1.3 °F 1019.9 in Calm     61 % 0.0 in
15:14 10.9 °F 1.7 °F 1020.9 in SE 9.3 mph 9.3 mph 53 % 0.0 in
15:19 10.6 °F 1.4 °F 1020.9 in East 13.0 mph 13.0 mph 53 % 0.0 in
15:20 5.6 °F -1.3 °F 1019.9 in West 1.6 mph 1.6 mph 61 % 0.0 in
15:24 10.4 °F 1.2 °F 1020.9 in ESE 13.0 mph 13.0 mph 53 % 0.0 in
15:29 10.3 °F 1.4 °F 1020.9 in ESE 9.3 mph 9.3 mph 54 % 0.0 in
15:30 5.6 °F -1.1 °F 1019.9 in Calm   1.6 mph 62 % 0.0 in
15:34 10.2 °F 1.3 °F 1020.9 in ESE 9.3 mph 9.3 mph 54 % 0.0 in
15:39 10.2 °F 1.3 °F 1020.9 in East 7.4 mph 7.4 mph 54 % 0.0 in
15:40 5.7 °F -1.0 °F 1019.9 in WSW 1.6 mph 3.2 mph 62 % 0.0 in
15:44 10.3 °F 1.4 °F 1020.9 in East 4.2 mph 4.7 mph 54 % 0.0 in
15:49 10.3 °F 1.4 °F 1020.9 in NNE 5.6 mph 5.6 mph 54 % 0.0 in
15:50 5.8 °F -0.9 °F 1019.9 in SW 1.6 mph 3.2 mph 62 % 0.0 in
15:54 10.4 °F 1.7 °F 1020.9 in ENE 5.6 mph 5.6 mph 55 % 0.0 in
15:59 10.2 °F 1.6 °F 1020.9 in ESE 5.6 mph 5.6 mph 55 % 0.0 in
16:00 5.9 °F -0.8 °F 1019.9 in Calm   3.2 mph 62 % 0.0 in
16:04 10.3 °F 1.9 °F 1020.9 in ENE 3.7 mph 3.7 mph 56 % 0.0 in
16:09 10.3 °F 1.9 °F 1020.9 in ENE 5.6 mph 5.6 mph 56 % 0.0 in
16:10 5.9 °F -0.6 °F 1019.9 in Calm     63 % 0.0 in
16:14 10.4 °F 2.0 °F 1020.9 in ENE 3.7 mph 3.7 mph 56 % 0.0 in
16:19 10.4 °F 1.7 °F 1020.9 in ESE 5.6 mph 5.6 mph 55 % 0.0 in
16:20 5.9 °F -0.6 °F 1019.9 in Calm   1.6 mph 63 % 0.0 in
16:24 10.4 °F 1.7 °F 1020.9 in ENE 3.7 mph 3.7 mph 55 % 0.0 in
16:34 10.5 °F 1.8 °F 1019.9 in NE 3.7 mph 3.7 mph 55 % 0.0 in
16:39 10.5 °F 1.8 °F 1019.9 in East 3.2 mph 3.2 mph 55 % 0.0 in
16:44 10.4 °F 2.0 °F 1020.9 in NNE 3.7 mph 3.7 mph 56 % 0.0 in
16:49 10.4 °F 2.0 °F 1020.9 in NE 5.0 mph 5.0 mph 56 % 0.0 in
16:54 10.3 °F 1.9 °F 1020.9 in NE 4.2 mph 4.2 mph 56 % 0.0 in
16:59 10.2 °F 1.8 °F 1020.9 in ENE 3.7 mph 3.7 mph 56 % 0.0 in
17:04 10.1 °F 1.7 °F 1020.9 in ENE 1.9 mph   56 % 0.0 in
17:14 10.0 °F 1.9 °F 1019.9 in WSW 3.7 mph 3.7 mph 57 % 0.0 in
17:19 9.9 °F 1.8 °F 1019.9 in West 3.7 mph 3.7 mph 57 % 0.0 in
17:24 9.7 °F 1.6 °F 1019.9 in West 1.9 mph 1.9 mph 57 % 0.0 in
17:29 9.5 °F 1.4 °F 1020.9 in SW 1.9 mph 1.9 mph 57 % 0.0 in
17:34 9.3 °F 1.2 °F 1020.9 in SW 2.3 mph   57 % 0.0 in
17:39 9.2 °F 1.1 °F 1020.9 in Calm     57 % 0.0 in
17:49 9.0 °F 0.9 °F 1019.9 in WSW 1.9 mph   57 % 0.0 in
17:59 8.7 °F 0.4 °F 1019.9 in WSW 1.9 mph 1.9 mph 56 % 0.0 in
18:04 8.5 °F 0.2 °F 1019.9 in SW 2.6 mph 2.6 mph 56 % 0.0 in
18:09 8.4 °F 0.1 °F 1019.9 in SW 1.9 mph 1.9 mph 56 % 0.0 in
18:14 8.2 °F 0.2 °F 1019.9 in Calm     57 % 0.0 in
18:20 8.1 °F 0.1 °F 1019.9 in SW 1.9 mph 2.3 mph 57 % 0.0 in
18:25 8.0 °F 0.0 °F 1019.9 in WSW 2.6 mph   57 % 0.0 in
18:30 8.0 °F 0.0 °F 1019.9 in WSW 3.7 mph 3.7 mph 57 % 0.0 in
18:35 7.9 °F -0.1 °F 1019.9 in WSW 1.9 mph   57 % 0.0 in
18:45 7.6 °F -0.4 °F 1018.8 in WSW 1.4 mph   57 % 0.0 in
18:50 7.6 °F -0.4 °F 1018.8 in SW 3.7 mph 3.7 mph 57 % 0.0 in
18:55 7.6 °F -0.4 °F 1018.8 in WSW 1.9 mph 1.9 mph 57 % 0.0 in
19:00 7.5 °F -0.2 °F 1019.9 in SW 1.9 mph 1.9 mph 58 % 0.0 in
19:05 7.5 °F -0.2 °F 1019.9 in SW 1.9 mph 1.9 mph 58 % 0.0 in
19:10 7.4 °F -0.3 °F 1019.9 in WSW 3.7 mph 3.7 mph 58 % 0.0 in
19:15 7.3 °F -0.4 °F 1019.9 in WSW 1.9 mph 1.9 mph 58 % 0.0 in
19:25 7.3 °F -0.4 °F 1019.9 in West 3.7 mph 3.7 mph 58 % 0.0 in
19:30 7.3 °F -0.4 °F 1019.9 in WSW 3.7 mph 3.7 mph 58 % 0.0 in
19:35 7.4 °F -0.3 °F 1019.9 in WSW 1.9 mph 1.9 mph 58 % 0.0 in
19:45 7.3 °F -0.4 °F 1018.8 in WSW 1.9 mph   58 % 0.0 in
19:50 7.3 °F -0.4 °F 1018.8 in WSW 1.9 mph   58 % 0.0 in
22:29 5.9 °F -0.4 °F 1019.9 in NNE 1.9 mph   64 % 0.0 in
22:34 5.9 °F -0.4 °F 1019.9 in Calm     64 % 0.0 in
22:39 5.9 °F -0.4 °F 1019.9 in NE 2.3 mph 2.3 mph 64 % 0.0 in
22:44 5.8 °F -0.5 °F 1019.9 in NE 2.3 mph 2.3 mph 64 % 0.0 in
22:49 5.7 °F -0.6 °F 1019.9 in NE 1.9 mph 1.9 mph 64 % 0.0 in
22:54 5.7 °F -0.6 °F 1019.9 in Calm     64 % 0.0 in
22:59 5.6 °F -0.7 °F 1018.8 in Calm     64 % 0.0 in
23:04 5.6 °F -0.7 °F 1018.8 in Calm     64 % 0.0 in
23:09 5.6 °F -0.7 °F 1018.8 in Calm     64 % 0.0 in
23:14 5.6 °F -0.7 °F 1019.9 in Calm     64 % 0.0 in
23:29 5.5 °F -0.8 °F 1018.8 in ENE 3.7 mph 3.7 mph 64 % 0.0 in
23:34 5.5 °F -0.8 °F 1018.8 in Calm     64 % 0.0 in
23:39 5.4 °F -0.9 °F 1018.8 in Calm     64 % 0.0 in
23:44 5.4 °F -0.9 °F 1018.8 in WSW 1.9 mph   64 % 0.0 in
23:49 5.3 °F -0.9 °F 1018.8 in WSW 2.3 mph 2.3 mph 64 % 0.0 in
23:54 5.3 °F -0.9 °F 1018.8 in WSW 3.7 mph 3.7 mph 64 % 0.0 in
23:59 5.3 °F -0.9 °F 1018.8 in SW 1.9 mph   64 % 0.0 in
Meteo Sesrovires
Elogis d' Weather Underground - 3.25 mb

Guio original per  Jim McMurry - jmcmurry@mwt.net Adaptat per a la plantilla per  Wim van der Kuil - Leuven-Template.eu

Trobareu la nostra informacio del temps tambe a:

Weather Underground

AWEKAS